sensor_id;sensor_type;location;lat;lon;timestamp;pressure;altitude;pressure_sealevel;temperature;humidity
6218;BME280;3142;48.206;11.550;2023-06-22T00:00:50;95810.13;;;23.00;66.98
6218;BME280;3142;48.206;11.550;2023-06-22T00:03:18;95807.22;;;22.97;67.25
6218;BME280;3142;48.206;11.550;2023-06-22T00:05:45;95804.88;;;22.90;67.66
6218;BME280;3142;48.206;11.550;2023-06-22T00:08:11;95801.03;;;23.07;66.99
6218;BME280;3142;48.206;11.550;2023-06-22T00:10:38;95799.66;;;23.14;66.63
6218;BME280;3142;48.206;11.550;2023-06-22T00:13:05;95797.19;;;23.23;66.48
6218;BME280;3142;48.206;11.550;2023-06-22T00:15:34;95789.41;;;23.26;66.37
6218;BME280;3142;48.206;11.550;2023-06-22T00:18:00;95787.03;;;23.25;65.79
6218;BME280;3142;48.206;11.550;2023-06-22T00:20:27;95792.66;;;23.23;66.33
6218;BME280;3142;48.206;11.550;2023-06-22T00:22:55;95783.09;;;23.12;65.94
6218;BME280;3142;48.206;11.550;2023-06-22T00:25:22;95780.81;;;22.95;66.82
6218;BME280;3142;48.206;11.550;2023-06-22T00:27:48;95798.19;;;22.88;66.81
6218;BME280;3142;48.206;11.550;2023-06-22T00:30:15;95778.75;;;22.77;67.08
6218;BME280;3142;48.206;11.550;2023-06-22T00:32:44;95772.63;;;22.71;67.14
6218;BME280;3142;48.206;11.550;2023-06-22T00:35:11;95781.50;;;22.57;67.79
6218;BME280;3142;48.206;11.550;2023-06-22T00:37:38;95786.06;;;22.51;67.88
6218;BME280;3142;48.206;11.550;2023-06-22T00:40:07;95788.19;;;22.54;68.11
6218;BME280;3142;48.206;11.550;2023-06-22T00:42:37;95786.63;;;22.48;68.22
6218;BME280;3142;48.206;11.550;2023-06-22T00:45:05;95782.09;;;22.49;68.31
6218;BME280;3142;48.206;11.550;2023-06-22T00:47:31;95790.34;;;22.47;68.54
6218;BME280;3142;48.206;11.550;2023-06-22T00:50:00;95788.75;;;22.46;68.67
6218;BME280;3142;48.206;11.550;2023-06-22T00:52:28;95780.47;;;22.47;68.73
6218;BME280;3142;48.206;11.550;2023-06-22T00:54:56;95790.09;;;22.49;68.66
6218;BME280;3142;48.206;11.550;2023-06-22T00:57:24;95787.44;;;22.43;68.74
6218;BME280;3142;48.206;11.550;2023-06-22T00:59:53;95785.81;;;22.47;68.78
6218;BME280;3142;48.206;11.550;2023-06-22T01:02:20;95787.91;;;22.56;68.39
6218;BME280;3142;48.206;11.550;2023-06-22T01:04:47;95787.63;;;22.57;68.41
6218;BME280;3142;48.206;11.550;2023-06-22T01:07:20;95789.22;;;22.58;68.34
6218;BME280;3142;48.206;11.550;2023-06-22T01:09:54;95779.34;;;22.59;68.41
6218;BME280;3142;48.206;11.550;2023-06-22T01:12:24;95771.34;;;22.59;68.15
6218;BME280;3142;48.206;11.550;2023-06-22T01:14:55;95769.53;;;22.54;68.13
6218;BME280;3142;48.206;11.550;2023-06-22T01:17:24;95759.69;;;22.50;68.55
6218;BME280;3142;48.206;11.550;2023-06-22T01:19:54;95755.41;;;22.49;68.60
6218;BME280;3142;48.206;11.550;2023-06-22T01:22:25;95753.00;;;22.47;68.16
6218;BME280;3142;48.206;11.550;2023-06-22T01:24:59;95752.50;;;22.40;68.36
6218;BME280;3142;48.206;11.550;2023-06-22T01:27:40;95753.59;;;22.39;68.32
6218;BME280;3142;48.206;11.550;2023-06-22T01:30:13;95748.78;;;22.41;68.31
6218;BME280;3142;48.206;11.550;2023-06-22T01:32:42;95747.72;;;22.37;68.21
6218;BME280;3142;48.206;11.550;2023-06-22T01:35:10;95750.13;;;22.38;68.35
6218;BME280;3142;48.206;11.550;2023-06-22T01:37:37;95742.09;;;22.43;67.64
6218;BME280;3142;48.206;11.550;2023-06-22T01:40:05;95743.47;;;22.31;68.15
6218;BME280;3142;48.206;11.550;2023-06-22T01:42:34;95742.91;;;22.34;68.37
6218;BME280;3142;48.206;11.550;2023-06-22T01:45:01;95745.34;;;22.30;68.30
6218;BME280;3142;48.206;11.550;2023-06-22T01:47:30;95750.41;;;22.32;68.44
6218;BME280;3142;48.206;11.550;2023-06-22T01:49:57;95747.94;;;22.51;67.65
6218;BME280;3142;48.206;11.550;2023-06-22T01:52:23;95750.28;;;22.57;67.64
6218;BME280;3142;48.206;11.550;2023-06-22T01:54:50;95735.88;;;22.63;67.20
6218;BME280;3142;48.206;11.550;2023-06-22T01:57:16;95737.72;;;22.68;67.26
6218;BME280;3142;48.206;11.550;2023-06-22T01:59:48;95747.03;;;22.75;66.99
6218;BME280;3142;48.206;11.550;2023-06-22T02:02:19;95743.56;;;22.70;66.97
6218;BME280;3142;48.206;11.550;2023-06-22T02:04:56;95749.69;;;22.70;66.95
6218;BME280;3142;48.206;11.550;2023-06-22T02:07:26;95749.97;;;22.69;67.07
6218;BME280;3142;48.206;11.550;2023-06-22T02:09:54;95746.75;;;22.72;66.83
6218;BME280;3142;48.206;11.550;2023-06-22T02:12:25;95746.19;;;22.75;66.50
6218;BME280;3142;48.206;11.550;2023-06-22T02:14:53;95752.31;;;22.86;66.48
6218;BME280;3142;48.206;11.550;2023-06-22T02:17:20;95755.75;;;22.91;66.02
6218;BME280;3142;48.206;11.550;2023-06-22T02:19:47;95760.31;;;22.91;65.75
6218;BME280;3142;48.206;11.550;2023-06-22T02:22:15;95760.03;;;22.87;66.02
6218;BME280;3142;48.206;11.550;2023-06-22T02:24:41;95760.81;;;22.93;65.51
6218;BME280;3142;48.206;11.550;2023-06-22T02:27:08;95753.38;;;22.90;65.91
6218;BME280;3142;48.206;11.550;2023-06-22T02:29:37;95757.66;;;22.86;65.67
6218;BME280;3142;48.206;11.550;2023-06-22T02:32:04;95759.50;;;22.85;65.42
6218;BME280;3142;48.206;11.550;2023-06-22T02:34:31;95758.22;;;22.72;66.04
6218;BME280;3142;48.206;11.550;2023-06-22T02:36:59;95760.59;;;22.74;65.91
6218;BME280;3142;48.206;11.550;2023-06-22T02:39:27;95766.22;;;22.77;65.71
6218;BME280;3142;48.206;11.550;2023-06-22T02:41:54;95773.22;;;22.63;66.18
6218;BME280;3142;48.206;11.550;2023-06-22T02:44:21;95776.94;;;22.67;66.27
6218;BME280;3142;48.206;11.550;2023-06-22T02:46:48;95779.63;;;22.57;66.39
6218;BME280;3142;48.206;11.550;2023-06-22T02:49:14;95782.88;;;22.49;66.54
6218;BME280;3142;48.206;11.550;2023-06-22T02:51:44;95782.81;;;22.59;66.68
6218;BME280;3142;48.206;11.550;2023-06-22T02:54:10;95778.84;;;22.62;66.69
6218;BME280;3142;48.206;11.550;2023-06-22T02:56:38;95770.34;;;22.44;67.01
6218;BME280;3142;48.206;11.550;2023-06-22T02:59:06;95773.34;;;22.28;67.83
6218;BME280;3142;48.206;11.550;2023-06-22T03:01:32;95765.06;;;22.29;67.75
6218;BME280;3142;48.206;11.550;2023-06-22T03:04:03;95765.91;;;22.25;68.03
6218;BME280;3142;48.206;11.550;2023-06-22T03:06:29;95762.19;;;22.21;68.20
6218;BME280;3142;48.206;11.550;2023-06-22T03:08:59;95761.88;;;22.27;68.04
6218;BME280;3142;48.206;11.550;2023-06-22T03:11:26;95748.88;;;22.21;68.17
6218;BME280;3142;48.206;11.550;2023-06-22T03:13:54;95752.56;;;22.25;68.29
6218;BME280;3142;48.206;11.550;2023-06-22T03:16:20;95748.88;;;22.10;68.58
6218;BME280;3142;48.206;11.550;2023-06-22T03:18:47;95742.72;;;22.05;68.88
6218;BME280;3142;48.206;11.550;2023-06-22T03:21:13;95749.38;;;22.17;68.63
6218;BME280;3142;48.206;11.550;2023-06-22T03:23:40;95754.97;;;22.26;67.94
6218;BME280;3142;48.206;11.550;2023-06-22T03:26:08;95747.81;;;22.06;68.33
6218;BME280;3142;48.206;11.550;2023-06-22T03:28:34;95751.81;;;21.88;69.33
6218;BME280;3142;48.206;11.550;2023-06-22T03:31:03;95756.34;;;21.88;69.44
6218;BME280;3142;48.206;11.550;2023-06-22T03:33:29;95755.56;;;21.77;69.79
6218;BME280;3142;48.206;11.550;2023-06-22T03:35:56;95753.97;;;21.76;70.12
6218;BME280;3142;48.206;11.550;2023-06-22T03:38:22;95751.06;;;21.73;70.10
6218;BME280;3142;48.206;11.550;2023-06-22T03:40:49;95749.47;;;21.82;70.06
6218;BME280;3142;48.206;11.550;2023-06-22T03:43:15;95757.69;;;21.85;69.96
6218;BME280;3142;48.206;11.550;2023-06-22T03:45:41;95766.72;;;22.00;69.56
6218;BME280;3142;48.206;11.550;2023-06-22T03:48:11;95762.47;;;22.14;69.28
6218;BME280;3142;48.206;11.550;2023-06-22T03:50:38;95767.25;;;22.22;68.77
6218;BME280;3142;48.206;11.550;2023-06-22T03:53:04;95765.34;;;22.28;68.63
6218;BME280;3142;48.206;11.550;2023-06-22T03:55:31;95769.13;;;22.16;68.90
6218;BME280;3142;48.206;11.550;2023-06-22T03:57:57;95767.53;;;22.10;69.11
6218;BME280;3142;48.206;11.550;2023-06-22T04:00:30;95764.31;;;22.03;69.55
6218;BME280;3142;48.206;11.550;2023-06-22T04:02:57;95768.63;;;22.09;69.83
6218;BME280;3142;48.206;11.550;2023-06-22T04:05:25;95764.31;;;22.18;69.30
6218;BME280;3142;48.206;11.550;2023-06-22T04:07:51;95775.00;;;22.13;69.38
6218;BME280;3142;48.206;11.550;2023-06-22T04:10:17;95778.22;;;22.10;69.77
6218;BME280;3142;48.206;11.550;2023-06-22T04:12:44;95772.84;;;22.15;69.79
6218;BME280;3142;48.206;11.550;2023-06-22T04:15:10;95773.63;;;22.26;69.54
6218;BME280;3142;48.206;11.550;2023-06-22T04:17:37;95775.25;;;22.17;69.92
6218;BME280;3142;48.206;11.550;2023-06-22T04:20:05;95776.00;;;22.33;69.73
6218;BME280;3142;48.206;11.550;2023-06-22T04:22:33;95773.63;;;22.26;69.57
6218;BME280;3142;48.206;11.550;2023-06-22T04:24:59;95768.53;;;22.30;69.69
6218;BME280;3142;48.206;11.550;2023-06-22T04:27:26;95772.81;;;22.26;69.82
6218;BME280;3142;48.206;11.550;2023-06-22T04:29:52;95763.25;;;22.25;69.79
6218;BME280;3142;48.206;11.550;2023-06-22T04:32:19;95761.91;;;22.22;70.16
6218;BME280;3142;48.206;11.550;2023-06-22T04:34:45;95767.28;;;22.12;70.79
6218;BME280;3142;48.206;11.550;2023-06-22T04:37:12;95756.59;;;22.02;70.94
6218;BME280;3142;48.206;11.550;2023-06-22T04:39:42;95754.22;;;21.90;71.68
6218;BME280;3142;48.206;11.550;2023-06-22T04:42:09;95764.34;;;21.98;71.61
6218;BME280;3142;48.206;11.550;2023-06-22T04:44:35;95761.13;;;22.11;71.10
6218;BME280;3142;48.206;11.550;2023-06-22T04:47:02;95752.91;;;22.08;71.24
6218;BME280;3142;48.206;11.550;2023-06-22T04:49:31;95751.03;;;21.88;72.09
6218;BME280;3142;48.206;11.550;2023-06-22T04:52:00;95757.16;;;21.78;72.39
6218;BME280;3142;48.206;11.550;2023-06-22T04:54:27;95752.63;;;21.94;72.26
6218;BME280;3142;48.206;11.550;2023-06-22T04:56:54;95754.47;;;22.04;71.90
6218;BME280;3142;48.206;11.550;2023-06-22T04:59:22;95750.22;;;21.98;71.74
6218;BME280;3142;48.206;11.550;2023-06-22T05:01:53;95749.72;;;21.85;72.47
6218;BME280;3142;48.206;11.550;2023-06-22T05:04:21;95742.81;;;21.79;72.08
6218;BME280;3142;48.206;11.550;2023-06-22T05:06:47;95751.84;;;21.78;72.49
6218;BME280;3142;48.206;11.550;2023-06-22T05:09:14;95752.91;;;21.87;72.22
6218;BME280;3142;48.206;11.550;2023-06-22T05:11:40;95755.00;;;22.01;72.00
6218;BME280;3142;48.206;11.550;2023-06-22T05:14:08;95745.66;;;22.03;71.60
6218;BME280;3142;48.206;11.550;2023-06-22T05:16:35;95748.06;;;22.05;71.02
6218;BME280;3142;48.206;11.550;2023-06-22T05:19:02;95749.97;;;21.94;71.10
6218;BME280;3142;48.206;11.550;2023-06-22T05:21:30;95746.47;;;21.99;71.20
6218;BME280;3142;48.206;11.550;2023-06-22T05:23:57;95753.94;;;22.12;71.16
6218;BME280;3142;48.206;11.550;2023-06-22T05:26:25;95744.53;;;22.30;70.22
6218;BME280;3142;48.206;11.550;2023-06-22T05:28:53;95754.41;;;22.34;70.48
6218;BME280;3142;48.206;11.550;2023-06-22T05:31:20;95750.88;;;22.44;69.92
6218;BME280;3142;48.206;11.550;2023-06-22T05:33:48;95744.69;;;22.59;69.73
6218;BME280;3142;48.206;11.550;2023-06-22T05:36:15;95742.81;;;22.64;68.61
6218;BME280;3142;48.206;11.550;2023-06-22T05:38:42;95739.38;;;22.54;68.87
6218;BME280;3142;48.206;11.550;2023-06-22T05:41:08;95752.19;;;22.52;68.92
6218;BME280;3142;48.206;11.550;2023-06-22T05:43:35;95746.31;;;22.55;69.10
6218;BME280;3142;48.206;11.550;2023-06-22T05:46:02;95747.03;;;22.70;69.07
6218;BME280;3142;48.206;11.550;2023-06-22T05:48:30;95738.69;;;22.82;68.23
6218;BME280;3142;48.206;11.550;2023-06-22T05:50:56;95744.03;;;22.82;68.14
6218;BME280;3142;48.206;11.550;2023-06-22T05:53:23;95748.03;;;22.85;68.32
6218;BME280;3142;48.206;11.550;2023-06-22T05:55:50;95741.63;;;22.91;67.99
6218;BME280;3142;48.206;11.550;2023-06-22T05:58:16;95739.94;;;23.00;67.87
6218;BME280;3142;48.206;11.550;2023-06-22T06:00:43;95728.19;;;23.06;67.66
6218;BME280;3142;48.206;11.550;2023-06-22T06:03:10;95739.88;;;23.10;67.95
6218;BME280;3142;48.206;11.550;2023-06-22T06:05:38;95748.56;;;23.31;67.01
6218;BME280;3142;48.206;11.550;2023-06-22T06:08:05;95749.19;;;23.18;66.84
6218;BME280;3142;48.206;11.550;2023-06-22T06:10:32;95761.28;;;23.00;67.27
6218;BME280;3142;48.206;11.550;2023-06-22T06:12:59;95756.56;;;22.87;67.69
6218;BME280;3142;48.206;11.550;2023-06-22T06:15:29;95748.88;;;22.75;67.79
6218;BME280;3142;48.206;11.550;2023-06-22T06:17:56;95744.00;;;22.92;67.93
6218;BME280;3142;48.206;11.550;2023-06-22T06:20:24;95742.00;;;23.13;66.92
6218;BME280;3142;48.206;11.550;2023-06-22T06:22:54;95748.69;;;23.11;67.78
6218;BME280;3142;48.206;11.550;2023-06-22T06:25:20;95736.81;;;23.27;66.89
6218;BME280;3142;48.206;11.550;2023-06-22T06:27:48;95739.84;;;23.49;66.25
6218;BME280;3142;48.206;11.550;2023-06-22T06:30:16;95727.75;;;23.62;65.62
6218;BME280;3142;48.206;11.550;2023-06-22T06:32:43;95726.81;;;23.77;65.35
6218;BME280;3142;48.206;11.550;2023-06-22T06:35:11;95725.13;;;23.86;65.31
6218;BME280;3142;48.206;11.550;2023-06-22T06:37:39;95719.53;;;24.06;64.03
6218;BME280;3142;48.206;11.550;2023-06-22T06:40:08;95714.41;;;24.10;63.96
6218;BME280;3142;48.206;11.550;2023-06-22T06:42:35;95712.03;;;24.08;64.02
6218;BME280;3142;48.206;11.550;2023-06-22T06:45:03;95724.63;;;23.79;65.15
6218;BME280;3142;48.206;11.550;2023-06-22T06:47:30;95727.63;;;24.01;64.26
6218;BME280;3142;48.206;11.550;2023-06-22T06:49:56;95727.97;;;24.18;64.21
6218;BME280;3142;48.206;11.550;2023-06-22T06:52:23;95721.59;;;24.38;63.37
6218;BME280;3142;48.206;11.550;2023-06-22T06:54:49;95720.16;;;24.46;63.60
6218;BME280;3142;48.206;11.550;2023-06-22T06:57:18;95713.13;;;24.31;63.56
6218;BME280;3142;48.206;11.550;2023-06-22T06:59:45;95722.97;;;24.36;63.90
6218;BME280;3142;48.206;11.550;2023-06-22T07:02:11;95727.63;;;24.49;63.28
6218;BME280;3142;48.206;11.550;2023-06-22T07:04:39;95729.88;;;24.61;63.32
6218;BME280;3142;48.206;11.550;2023-06-22T07:07:06;95726.53;;;24.50;63.39
6218;BME280;3142;48.206;11.550;2023-06-22T07:09:32;95715.25;;;24.53;63.61
6218;BME280;3142;48.206;11.550;2023-06-22T07:11:59;95721.56;;;24.62;63.09
6218;BME280;3142;48.206;11.550;2023-06-22T07:14:27;95729.63;;;24.81;62.50
6218;BME280;3142;48.206;11.550;2023-06-22T07:16:53;95734.16;;;24.80;62.82
6218;BME280;3142;48.206;11.550;2023-06-22T07:19:24;95727.72;;;24.63;63.22
6218;BME280;3142;48.206;11.550;2023-06-22T07:21:51;95726.78;;;24.54;63.61
6218;BME280;3142;48.206;11.550;2023-06-22T07:24:17;95723.44;;;24.43;63.73
6218;BME280;3142;48.206;11.550;2023-06-22T07:26:45;95725.16;;;24.52;64.16
6218;BME280;3142;48.206;11.550;2023-06-22T07:29:11;95722.44;;;24.76;63.12
6218;BME280;3142;48.206;11.550;2023-06-22T07:31:39;95721.13;;;24.93;62.56
6218;BME280;3142;48.206;11.550;2023-06-22T07:34:06;95712.31;;;24.92;62.28
6218;BME280;3142;48.206;11.550;2023-06-22T07:36:32;95713.13;;;24.74;62.63
6218;BME280;3142;48.206;11.550;2023-06-22T07:39:00;95697.22;;;24.83;62.66
6218;BME280;3142;48.206;11.550;2023-06-22T07:41:27;95696.31;;;25.06;62.53
6218;BME280;3142;48.206;11.550;2023-06-22T07:43:54;95695.09;;;25.17;62.15
6218;BME280;3142;48.206;11.550;2023-06-22T07:46:20;95682.47;;;25.36;61.18
6218;BME280;3142;48.206;11.550;2023-06-22T07:48:48;95692.44;;;25.50;61.11
6218;BME280;3142;48.206;11.550;2023-06-22T07:51:15;95683.69;;;25.58;60.76
6218;BME280;3142;48.206;11.550;2023-06-22T07:53:41;95682.84;;;25.76;60.24
6218;BME280;3142;48.206;11.550;2023-06-22T07:56:09;95691.44;;;26.06;59.34
6218;BME280;3142;48.206;11.550;2023-06-22T07:58:36;95690.09;;;26.17;58.58
6218;BME280;3142;48.206;11.550;2023-06-22T08:01:03;95685.28;;;26.05;58.79
6218;BME280;3142;48.206;11.550;2023-06-22T08:03:29;95691.50;;;26.14;58.91
6218;BME280;3142;48.206;11.550;2023-06-22T08:05:57;95688.22;;;26.45;58.04
6218;BME280;3142;48.206;11.550;2023-06-22T08:08:24;95689.81;;;26.60;57.28
6218;BME280;3142;48.206;11.550;2023-06-22T08:10:50;95696.13;;;26.77;57.13
6218;BME280;3142;48.206;11.550;2023-06-22T08:13:17;95693.66;;;26.67;56.61
6218;BME280;3142;48.206;11.550;2023-06-22T08:15:44;95688.50;;;26.57;57.27
6218;BME280;3142;48.206;11.550;2023-06-22T08:18:11;95684.63;;;26.63;57.44
6218;BME280;3142;48.206;11.550;2023-06-22T08:20:37;95692.53;;;26.46;56.99
6218;BME280;3142;48.206;11.550;2023-06-22T08:23:05;95695.19;;;26.32;57.70
6218;BME280;3142;48.206;11.550;2023-06-22T08:25:31;95697.16;;;26.54;57.71
6218;BME280;3142;48.206;11.550;2023-06-22T08:27:58;95685.25;;;26.82;56.88
6218;BME280;3142;48.206;11.550;2023-06-22T08:30:24;95691.31;;;27.02;56.22
6218;BME280;3142;48.206;11.550;2023-06-22T08:32:51;95676.50;;;27.35;55.13
6218;BME280;3142;48.206;11.550;2023-06-22T08:35:17;95678.50;;;27.74;54.72
6218;BME280;3142;48.206;11.550;2023-06-22T08:37:44;95674.78;;;27.93;54.13
6218;BME280;3142;48.206;11.550;2023-06-22T08:40:19;95678.19;;;28.16;52.89
6218;BME280;3142;48.206;11.550;2023-06-22T08:42:46;95679.00;;;28.25;52.44
6218;BME280;3142;48.206;11.550;2023-06-22T08:45:13;95682.78;;;28.15;52.05
6218;BME280;3142;48.206;11.550;2023-06-22T08:47:40;95689.00;;;27.93;52.69
6218;BME280;3142;48.206;11.550;2023-06-22T08:50:08;95677.66;;;27.96;52.94
6218;BME280;3142;48.206;11.550;2023-06-22T08:52:35;95682.69;;;27.89;53.23
6218;BME280;3142;48.206;11.550;2023-06-22T08:55:02;95675.75;;;27.97;52.41
6218;BME280;3142;48.206;11.550;2023-06-22T08:57:29;95683.03;;;27.96;53.12
6218;BME280;3142;48.206;11.550;2023-06-22T08:59:57;95669.75;;;28.09;52.33
6218;BME280;3142;48.206;11.550;2023-06-22T09:02:24;95677.44;;;28.24;52.62
6218;BME280;3142;48.206;11.550;2023-06-22T09:04:50;95666.06;;;28.36;51.38
6218;BME280;3142;48.206;11.550;2023-06-22T09:07:20;95659.56;;;28.37;50.91
6218;BME280;3142;48.206;11.550;2023-06-22T09:09:48;95670.84;;;28.47;50.79
6218;BME280;3142;48.206;11.550;2023-06-22T09:12:15;95670.25;;;28.68;50.17
6218;BME280;3142;48.206;11.550;2023-06-22T09:14:43;95663.31;;;28.93;49.76
6218;BME280;3142;48.206;11.550;2023-06-22T09:17:09;95667.72;;;29.14;49.42
6218;BME280;3142;48.206;11.550;2023-06-22T09:19:35;95665.66;;;29.11;49.65
6218;BME280;3142;48.206;11.550;2023-06-22T09:22:02;95666.00;;;29.01;49.78
6218;BME280;3142;48.206;11.550;2023-06-22T09:24:31;95664.09;;;29.10;48.70
6218;BME280;3142;48.206;11.550;2023-06-22T09:26:57;95671.84;;;29.12;49.17
6218;BME280;3142;48.206;11.550;2023-06-22T09:29:24;95661.53;;;29.23;49.00
6218;BME280;3142;48.206;11.550;2023-06-22T09:31:51;95668.28;;;29.46;47.96
6218;BME280;3142;48.206;11.550;2023-06-22T09:34:18;95660.00;;;29.77;47.64
6218;BME280;3142;48.206;11.550;2023-06-22T09:36:45;95654.50;;;30.03;46.60
6218;BME280;3142;48.206;11.550;2023-06-22T09:39:12;95652.53;;;30.21;46.30
6218;BME280;3142;48.206;11.550;2023-06-22T09:41:38;95646.09;;;30.34;45.98
6218;BME280;3142;48.206;11.550;2023-06-22T09:44:04;95659.06;;;30.41;45.72
6218;BME280;3142;48.206;11.550;2023-06-22T09:46:31;95654.78;;;30.40;45.93
6218;BME280;3142;48.206;11.550;2023-06-22T09:48:59;95648.56;;;30.48;45.92
6218;BME280;3142;48.206;11.550;2023-06-22T09:51:25;95648.34;;;30.32;45.48
6218;BME280;3142;48.206;11.550;2023-06-22T09:53:52;95655.25;;;30.42;45.76
6218;BME280;3142;48.206;11.550;2023-06-22T09:56:19;95650.94;;;30.70;45.34
6218;BME280;3142;48.206;11.550;2023-06-22T09:58:46;95648.38;;;30.94;45.05
6218;BME280;3142;48.206;11.550;2023-06-22T10:01:15;95636.09;;;31.18;44.78
6218;BME280;3142;48.206;11.550;2023-06-22T10:03:42;95639.78;;;31.46;44.41
6218;BME280;3142;48.206;11.550;2023-06-22T10:06:10;95634.06;;;31.60;44.00
6218;BME280;3142;48.206;11.550;2023-06-22T10:08:36;95627.25;;;31.75;43.67
6218;BME280;3142;48.206;11.550;2023-06-22T10:11:03;95634.81;;;31.81;42.71
6218;BME280;3142;48.206;11.550;2023-06-22T10:13:29;95631.19;;;31.90;42.86
6218;BME280;3142;48.206;11.550;2023-06-22T10:15:55;95628.84;;;32.00;42.23
6218;BME280;3142;48.206;11.550;2023-06-22T10:18:22;95628.72;;;32.09;41.82
6218;BME280;3142;48.206;11.550;2023-06-22T10:20:50;95627.94;;;32.08;42.22
6218;BME280;3142;48.206;11.550;2023-06-22T10:23:18;95634.25;;;32.12;42.42
6218;BME280;3142;48.206;11.550;2023-06-22T10:25:45;95631.66;;;32.28;42.83
6218;BME280;3142;48.206;11.550;2023-06-22T10:28:11;95629.03;;;32.44;42.21
6218;BME280;3142;48.206;11.550;2023-06-22T10:30:38;95628.59;;;32.54;41.93
6218;BME280;3142;48.206;11.550;2023-06-22T10:33:06;95618.88;;;32.53;41.85
6218;BME280;3142;48.206;11.550;2023-06-22T10:35:33;95624.66;;;32.39;42.28
6218;BME280;3142;48.206;11.550;2023-06-22T10:37:59;95620.00;;;32.52;42.64
6218;BME280;3142;48.206;11.550;2023-06-22T10:40:27;95617.69;;;32.79;41.74
6218;BME280;3142;48.206;11.550;2023-06-22T10:42:53;95609.81;;;33.02;41.20
6218;BME280;3142;48.206;11.550;2023-06-22T10:45:20;95607.94;;;33.18;41.54
6218;BME280;3142;48.206;11.550;2023-06-22T10:47:46;95594.53;;;33.37;40.83
6218;BME280;3142;48.206;11.550;2023-06-22T10:50:13;95598.28;;;33.48;39.98
6218;BME280;3142;48.206;11.550;2023-06-22T10:52:40;95591.81;;;33.69;40.52
6218;BME280;3142;48.206;11.550;2023-06-22T10:55:07;95585.59;;;33.68;39.00
6218;BME280;3142;48.206;11.550;2023-06-22T10:57:35;95587.16;;;33.53;39.43
6218;BME280;3142;48.206;11.550;2023-06-22T11:00:05;95582.38;;;33.47;39.55
6218;BME280;3142;48.206;11.550;2023-06-22T11:02:33;95584.88;;;33.40;40.28
6218;BME280;3142;48.206;11.550;2023-06-22T11:04:59;95577.31;;;32.89;40.50
6218;BME280;3142;48.206;11.550;2023-06-22T11:07:26;95585.06;;;32.35;40.65
6218;BME280;3142;48.206;11.550;2023-06-22T11:09:53;95591.59;;;32.09;41.76
6218;BME280;3142;48.206;11.550;2023-06-22T11:12:20;95586.31;;;31.89;41.81
6218;BME280;3142;48.206;11.550;2023-06-22T11:14:48;95594.44;;;31.89;42.08
6218;BME280;3142;48.206;11.550;2023-06-22T11:17:16;95592.50;;;31.89;41.98
6218;BME280;3142;48.206;11.550;2023-06-22T11:19:43;95580.88;;;32.13;41.87
6218;BME280;3142;48.206;11.550;2023-06-22T11:22:09;95576.59;;;32.36;42.44
6218;BME280;3142;48.206;11.550;2023-06-22T11:24:36;95578.97;;;32.66;41.83
6218;BME280;3142;48.206;11.550;2023-06-22T11:27:02;95577.22;;;32.86;41.49
6218;BME280;3142;48.206;11.550;2023-06-22T11:29:37;95576.34;;;32.82;40.48
6218;BME280;3142;48.206;11.550;2023-06-22T11:32:05;95576.69;;;33.08;40.22
6218;BME280;3142;48.206;11.550;2023-06-22T11:34:32;95576.09;;;33.30;39.72
6218;BME280;3142;48.206;11.550;2023-06-22T11:36:59;95564.75;;;33.41;39.93
6218;BME280;3142;48.206;11.550;2023-06-22T11:39:25;95563.28;;;33.59;38.74
6218;BME280;3142;48.206;11.550;2023-06-22T11:41:52;95556.81;;;33.48;39.42
6218;BME280;3142;48.206;11.550;2023-06-22T11:44:18;95550.94;;;33.62;39.46
6218;BME280;3142;48.206;11.550;2023-06-22T11:46:46;95551.63;;;33.74;38.84
6218;BME280;3142;48.206;11.550;2023-06-22T11:49:13;95543.47;;;33.74;39.46
6218;BME280;3142;48.206;11.550;2023-06-22T11:51:40;95543.19;;;33.79;39.18
6218;BME280;3142;48.206;11.550;2023-06-22T11:54:06;95536.41;;;33.85;39.30
6218;BME280;3142;48.206;11.550;2023-06-22T11:56:32;95543.47;;;33.74;39.63
6218;BME280;3142;48.206;11.550;2023-06-22T11:58:59;95547.88;;;33.63;40.44
6218;BME280;3142;48.206;11.550;2023-06-22T12:01:25;95542.84;;;33.81;40.43
6218;BME280;3142;48.206;11.550;2023-06-22T12:03:53;95542.25;;;33.88;40.22
6218;BME280;3142;48.206;11.550;2023-06-22T12:06:20;95533.03;;;33.92;40.54
6218;BME280;3142;48.206;11.550;2023-06-22T12:08:46;95532.25;;;33.92;40.54
6218;BME280;3142;48.206;11.550;2023-06-22T12:11:12;95530.41;;;33.80;41.09
6218;BME280;3142;48.206;11.550;2023-06-22T12:13:39;95521.44;;;33.60;40.60
6218;BME280;3142;48.206;11.550;2023-06-22T12:16:05;95524.13;;;33.60;41.17
6218;BME280;3142;48.206;11.550;2023-06-22T12:18:32;95521.53;;;33.48;40.91
6218;BME280;3142;48.206;11.550;2023-06-22T12:21:00;95513.28;;;33.60;41.49
6218;BME280;3142;48.206;11.550;2023-06-22T12:23:26;95499.78;;;33.64;41.50
6218;BME280;3142;48.206;11.550;2023-06-22T12:25:53;95501.28;;;33.61;41.13
6218;BME280;3142;48.206;11.550;2023-06-22T12:28:19;95503.56;;;33.43;41.21
6218;BME280;3142;48.206;11.550;2023-06-22T12:30:46;95501.81;;;33.19;41.64
6218;BME280;3142;48.206;11.550;2023-06-22T12:33:12;95505.53;;;32.99;42.23
6218;BME280;3142;48.206;11.550;2023-06-22T12:35:39;95486.97;;;33.01;42.15
6218;BME280;3142;48.206;11.550;2023-06-22T12:38:06;95492.75;;;33.15;41.96
6218;BME280;3142;48.206;11.550;2023-06-22T12:40:34;95490.41;;;33.29;41.73
6218;BME280;3142;48.206;11.550;2023-06-22T12:43:00;95496.66;;;33.46;42.37
6218;BME280;3142;48.206;11.550;2023-06-22T12:45:27;95492.19;;;33.53;41.84
6218;BME280;3142;48.206;11.550;2023-06-22T12:47:56;95488.59;;;33.49;41.20
6218;BME280;3142;48.206;11.550;2023-06-22T12:50:23;95488.34;;;33.39;41.39
6218;BME280;3142;48.206;11.550;2023-06-22T12:52:49;95484.53;;;33.27;42.04
6218;BME280;3142;48.206;11.550;2023-06-22T12:55:17;95486.56;;;33.15;42.42
6218;BME280;3142;48.206;11.550;2023-06-22T12:57:43;95481.75;;;33.08;42.36
6218;BME280;3142;48.206;11.550;2023-06-22T13:00:11;95473.41;;;33.01;41.64
6218;BME280;3142;48.206;11.550;2023-06-22T13:02:37;95468.06;;;32.89;42.83
6218;BME280;3142;48.206;11.550;2023-06-22T13:05:04;95474.56;;;32.84;42.08
6218;BME280;3142;48.206;11.550;2023-06-22T13:07:31;95464.06;;;32.83;42.37
6218;BME280;3142;48.206;11.550;2023-06-22T13:09:57;95466.41;;;32.84;42.45